createdAt,value
2018-08-24T00:01:16.944Z,95.63
2018-08-24T00:03:45.960Z,95.49
2018-08-24T00:06:15.010Z,95.95
2018-08-24T00:08:44.028Z,95.30
2018-08-24T00:11:12.956Z,95.39
2018-08-24T00:13:42.020Z,95.06
2018-08-24T00:16:11.074Z,95.39
2018-08-24T00:18:40.016Z,96.86
2018-08-24T00:21:08.971Z,96.55
2018-08-24T00:23:37.932Z,95.48
2018-08-24T00:26:06.972Z,95.32
2018-08-24T00:28:35.916Z,95.56
2018-08-24T00:31:04.923Z,96.40
2018-08-24T00:33:33.872Z,96.30
2018-08-24T00:36:02.828Z,96.27
2018-08-24T00:38:31.837Z,96.30
2018-08-24T00:41:00.774Z,96.12
2018-08-24T00:43:29.772Z,96.88
2018-08-24T00:45:58.711Z,95.97
2018-08-24T00:48:27.709Z,96.05
2018-08-24T00:50:56.631Z,96.25
2018-08-24T00:53:25.568Z,97.63
2018-08-24T00:55:54.512Z,96.83
2018-08-24T00:58:23.664Z,96.44
2018-08-24T01:00:56.656Z,96.23
2018-08-24T01:03:25.605Z,95.70
2018-08-24T01:05:54.657Z,96.33
2018-08-24T01:08:23.591Z,96.71
2018-08-24T01:10:52.632Z,96.06
2018-08-24T01:13:21.581Z,96.35
2018-08-24T01:15:52.558Z,96.99
2018-08-24T01:18:23.620Z,97.69
2018-08-24T01:20:54.635Z,97.36
2018-08-24T01:23:24.888Z,97.42
2018-08-24T01:25:53.864Z,98.15
2018-08-24T01:28:23.244Z,98.37
2018-08-24T01:30:52.494Z,97.92
2018-08-24T01:33:21.488Z,98.42
2018-08-24T01:35:50.549Z,98.42
2018-08-24T01:38:19.539Z,98.44
2018-08-24T01:40:48.624Z,98.46
2018-08-24T01:43:17.560Z,99.34
2018-08-24T01:45:46.482Z,99.08
2018-08-24T01:48:15.485Z,98.68
2018-08-24T01:50:44.437Z,99.25
2018-08-24T01:53:13.393Z,99.65
2018-08-24T01:55:42.377Z,99.93
2018-08-24T01:58:11.388Z,99.13
2018-08-24T02:00:40.529Z,99.79
2018-08-24T02:03:09.475Z,100.00
2018-08-24T02:05:38.427Z,100.00
2018-08-24T02:08:07.359Z,99.91
2018-08-24T02:10:36.303Z,100.00
2018-08-24T02:13:10.414Z,99.83
2018-08-24T02:15:44.548Z,100.00
2018-08-24T02:18:18.952Z,100.00
2018-08-24T02:20:53.008Z,100.00
2018-08-24T02:23:22.037Z,100.00
2018-08-24T02:25:51.051Z,100.00
2018-08-24T02:28:20.048Z,100.00
2018-08-24T02:30:49.035Z,100.00
2018-08-24T02:33:18.133Z,100.00
2018-08-24T02:35:47.132Z,100.00
2018-08-24T02:38:16.150Z,100.00
2018-08-24T02:40:45.170Z,100.00
2018-08-24T02:43:14.149Z,100.00
2018-08-24T02:45:43.133Z,100.00
2018-08-24T02:48:12.147Z,99.78
2018-08-24T02:50:41.079Z,99.95
2018-08-24T02:53:10.144Z,100.00
2018-08-24T02:55:39.181Z,100.00
2018-08-24T02:58:08.174Z,100.00
2018-08-24T03:00:37.188Z,100.00
2018-08-24T03:03:06.197Z,100.00
2018-08-24T03:05:35.362Z,100.00
2018-08-24T03:08:04.220Z,100.00
2018-08-24T03:10:33.245Z,99.77
2018-08-24T03:13:02.286Z,99.43
2018-08-24T03:15:31.288Z,99.72
2018-08-24T03:18:00.229Z,99.52
2018-08-24T03:20:29.265Z,99.56
2018-08-24T03:22:58.356Z,100.00
2018-08-24T03:25:27.405Z,99.78
2018-08-24T03:27:56.520Z,99.04
2018-08-24T03:30:25.517Z,99.73
2018-08-24T03:32:54.520Z,99.46
2018-08-24T03:35:23.525Z,99.50
2018-08-24T03:37:52.500Z,99.57
2018-08-24T03:40:21.509Z,99.43
2018-08-24T03:42:50.501Z,99.23
2018-08-24T03:45:19.595Z,99.23
2018-08-24T03:47:48.588Z,98.91
2018-08-24T03:50:17.513Z,99.26
2018-08-24T03:52:46.572Z,99.31
2018-08-24T03:55:15.516Z,99.51
2018-08-24T03:57:44.508Z,98.43
2018-08-24T04:00:18.220Z,98.07
2018-08-24T04:02:47.720Z,98.50
2018-08-24T04:05:17.216Z,97.84
2018-08-24T04:07:46.288Z,97.77
2018-08-24T04:10:15.338Z,96.73
2018-08-24T04:12:44.397Z,96.09
2018-08-24T04:15:13.355Z,94.92
2018-08-24T04:17:43.988Z,95.19
2018-08-24T04:20:14.026Z,94.00
2018-08-24T04:22:43.207Z,94.77
2018-08-24T04:25:12.256Z,95.08
2018-08-24T04:27:41.172Z,94.69
2018-08-24T04:30:11.081Z,89.22
2018-08-24T04:32:40.157Z,84.83
2018-08-24T04:35:09.186Z,80.29
2018-08-24T04:37:38.192Z,75.44
2018-08-24T04:40:07.183Z,71.67
2018-08-24T04:42:36.200Z,67.30
2018-08-24T04:45:05.148Z,63.16
2018-08-24T04:47:34.185Z,59.95
2018-08-24T04:50:03.258Z,57.26
2018-08-24T04:52:32.316Z,54.63
2018-08-24T04:55:01.353Z,52.80
2018-08-24T04:57:30.344Z,51.62
2018-08-24T04:59:59.316Z,48.38
2018-08-24T05:02:28.348Z,47.93
2018-08-24T05:04:57.455Z,47.49
2018-08-24T05:07:26.516Z,46.57
2018-08-24T05:09:55.562Z,44.63
2018-08-24T05:12:24.572Z,43.24
2018-08-24T05:14:53.619Z,42.18
2018-08-24T05:17:22.675Z,44.20
2018-08-24T05:19:51.620Z,41.49
2018-08-24T05:22:20.684Z,41.25
2018-08-24T05:24:49.684Z,39.76
2018-08-24T05:27:18.673Z,40.04
2018-08-24T05:29:47.694Z,39.50
2018-08-24T05:32:16.627Z,40.70
2018-08-24T05:34:45.572Z,42.40
2018-08-24T05:37:14.624Z,44.84
2018-08-24T05:39:43.691Z,45.69
2018-08-24T05:42:12.740Z,43.50
2018-08-24T05:44:41.868Z,43.66
2018-08-24T05:47:10.992Z,44.19
2018-08-24T05:49:39.938Z,45.41
2018-08-24T05:52:08.893Z,45.92
2018-08-24T05:54:37.938Z,43.56
2018-08-24T05:57:06.952Z,41.83
2018-08-24T05:59:35.899Z,38.94
2018-08-24T06:02:04.851Z,38.92
2018-08-24T06:04:33.850Z,37.48
2018-08-24T06:07:02.868Z,38.00
2018-08-24T06:09:31.919Z,37.97
2018-08-24T06:12:00.861Z,40.87
2018-08-24T06:14:29.856Z,46.33
2018-08-24T06:17:03.804Z,49.69
2018-08-24T06:19:32.799Z,52.71
2018-08-24T06:22:01.904Z,55.56
2018-08-24T06:24:30.880Z,56.85
2018-08-24T06:27:00.037Z,57.38
2018-08-24T06:29:29.082Z,56.65
2018-08-24T06:31:58.101Z,53.31
2018-08-24T06:34:27.038Z,50.64
2018-08-24T06:36:56.080Z,46.04
2018-08-24T06:39:25.003Z,46.46
2018-08-24T06:41:54.070Z,46.93
2018-08-24T06:44:22.991Z,50.84
2018-08-24T06:46:51.998Z,51.94
2018-08-24T06:49:20.948Z,55.09
2018-08-24T06:51:49.895Z,55.50
2018-08-24T06:54:19.017Z,52.12
2018-08-24T06:56:48.020Z,54.14
2018-08-24T06:59:17.065Z,55.93
2018-08-24T07:01:46.016Z,54.87
2018-08-24T07:04:14.992Z,55.38
2018-08-24T07:06:44.404Z,55.80
2018-08-24T07:09:13.345Z,54.32
2018-08-24T07:11:42.406Z,53.21
2018-08-24T07:14:11.409Z,52.07
2018-08-24T07:16:40.340Z,53.07
2018-08-24T07:19:09.296Z,51.57
2018-08-24T07:21:38.288Z,50.58
2018-08-24T07:24:07.288Z,50.04
2018-08-24T07:26:36.281Z,48.46
2018-08-24T07:29:05.448Z,47.78
2018-08-24T07:31:34.381Z,49.30
2018-08-24T07:34:03.495Z,48.36
2018-08-24T07:36:32.447Z,51.53
2018-08-24T07:39:01.482Z,45.20
2018-08-24T07:41:30.551Z,41.86
2018-08-24T07:43:59.472Z,43.30
2018-08-24T07:46:28.521Z,43.45
2018-08-24T07:48:57.525Z,45.38
2018-08-24T07:51:26.581Z,46.54
2018-08-24T07:53:55.556Z,46.78
2018-08-24T07:56:24.483Z,45.08
2018-08-24T07:58:53.500Z,45.36
2018-08-24T08:01:22.581Z,44.80
2018-08-24T08:03:51.604Z,46.57
2018-08-24T08:06:20.658Z,46.29
2018-08-24T08:08:50.033Z,43.34
2018-08-24T08:11:18.979Z,43.35
2018-08-24T08:13:48.008Z,42.42
2018-08-24T08:16:16.959Z,43.40
2018-08-24T08:18:45.919Z,43.30
2018-08-24T08:21:15.034Z,45.93
2018-08-24T08:23:43.983Z,41.03
2018-08-24T08:26:12.936Z,42.75
2018-08-24T08:28:41.891Z,44.91
2018-08-24T08:31:10.888Z,40.27
2018-08-24T08:33:39.841Z,40.42
2018-08-24T08:36:08.928Z,38.75
2018-08-24T08:38:37.997Z,44.40
2018-08-24T08:41:07.240Z,39.17
2018-08-24T08:43:36.281Z,45.14
2018-08-24T08:46:05.313Z,42.70
2018-08-24T08:48:34.324Z,41.59
2018-08-24T08:51:03.288Z,43.57
2018-08-24T08:53:32.358Z,42.91
2018-08-24T08:56:01.457Z,42.23
2018-08-24T08:58:30.516Z,43.49
2018-08-24T09:00:59.495Z,45.02
2018-08-24T09:03:28.584Z,42.49
2018-08-24T09:05:57.591Z,42.48
2018-08-24T09:08:26.558Z,42.88
2018-08-24T09:10:55.501Z,41.30
2018-08-24T09:13:24.561Z,40.94
2018-08-24T09:15:53.602Z,41.42
2018-08-24T09:18:27.843Z,39.42
2018-08-24T09:21:01.908Z,39.73
2018-08-24T09:23:36.145Z,42.33
2018-08-24T09:26:10.081Z,40.49
2018-08-24T09:28:40.316Z,39.51
2018-08-24T09:31:14.255Z,36.82
2018-08-24T09:33:43.315Z,38.10
2018-08-24T09:36:17.252Z,38.22
2018-08-24T09:38:46.259Z,37.68
2018-08-24T09:41:15.252Z,39.53
2018-08-24T09:43:49.449Z,39.06
2018-08-24T09:46:18.467Z,39.02
2018-08-24T09:48:52.647Z,37.60
2018-08-24T09:51:25.848Z,36.06
2018-08-24T09:54:00.024Z,38.79
2018-08-24T09:56:29.800Z,40.99
2018-08-24T09:58:59.136Z,38.91
2018-08-24T10:01:33.052Z,39.75
2018-08-24T10:04:07.113Z,40.02
2018-08-24T10:06:41.377Z,40.69
2018-08-24T10:09:12.005Z,39.24
2018-08-24T10:11:41.072Z,40.89
2018-08-24T10:14:10.448Z,42.38
2018-08-24T10:16:39.623Z,35.63
2018-08-24T10:19:11.656Z,35.75
2018-08-24T10:21:40.822Z,37.09
2018-08-24T10:24:10.225Z,34.74
2018-08-24T10:26:39.539Z,36.96
2018-08-24T10:29:09.159Z,35.33
2018-08-24T10:31:38.581Z,35.06
2018-08-24T10:34:07.561Z,34.89
2018-08-24T10:36:36.663Z,34.45
2018-08-24T10:39:08.666Z,35.79
2018-08-24T10:41:37.516Z,33.36
2018-08-24T10:44:06.845Z,32.88
2018-08-24T10:46:35.846Z,32.50
2018-08-24T10:49:04.856Z,30.16
2018-08-24T10:51:33.884Z,32.04
2018-08-24T10:54:02.893Z,31.23
2018-08-24T10:56:31.983Z,32.23
2018-08-24T10:59:00.990Z,31.03
2018-08-24T11:01:30.093Z,27.72
2018-08-24T11:03:59.084Z,29.41
2018-08-24T11:06:28.095Z,27.74
2018-08-24T11:08:57.129Z,25.02
2018-08-24T11:11:26.160Z,26.81
2018-08-24T11:13:55.177Z,25.94
2018-08-24T11:16:24.125Z,26.30
2018-08-24T11:18:53.073Z,27.14
2018-08-24T11:21:22.103Z,23.80
2018-08-24T11:23:51.098Z,23.87
2018-08-24T11:26:20.201Z,21.47
2018-08-24T11:28:49.149Z,21.44
2018-08-24T11:31:18.180Z,21.40
2018-08-24T11:33:47.197Z,21.14
2018-08-24T11:36:16.224Z,21.49
2018-08-24T11:38:45.244Z,20.33
2018-08-24T11:41:15.255Z,19.53
2018-08-24T11:43:44.323Z,21.32
2018-08-24T11:46:13.532Z,20.56
2018-08-24T11:48:42.737Z,20.31
2018-08-24T11:51:11.927Z,21.08
2018-08-24T11:53:40.983Z,19.74
2018-08-24T11:56:10.074Z,20.16
2018-08-24T11:58:39.146Z,20.72
2018-08-24T12:01:08.378Z,21.81
2018-08-24T12:03:37.467Z,20.62
2018-08-24T12:06:06.696Z,18.73
2018-08-24T12:08:35.749Z,18.28
2018-08-24T12:11:04.802Z,19.11
2018-08-24T12:13:33.922Z,18.27
2018-08-24T12:16:03.075Z,18.03
2018-08-24T12:18:32.391Z,18.57
2018-08-24T12:21:01.422Z,19.36
2018-08-24T12:23:30.574Z,19.57
2018-08-24T12:25:59.638Z,18.92
2018-08-24T12:28:28.657Z,18.36
2018-08-24T12:30:57.876Z,18.21
2018-08-24T12:33:26.893Z,18.45
2018-08-24T12:35:55.916Z,19.41
2018-08-24T12:38:24.933Z,18.34
2018-08-24T12:40:54.038Z,18.35
2018-08-24T12:43:23.167Z,18.67
2018-08-24T12:45:52.202Z,17.71
2018-08-24T12:48:21.298Z,19.38
2018-08-24T12:50:50.388Z,19.11
2018-08-24T12:53:19.403Z,20.29
2018-08-24T12:55:48.411Z,19.45
2018-08-24T12:58:17.542Z,19.35
2018-08-24T13:00:46.575Z,18.94
2018-08-24T13:03:15.618Z,19.47
2018-08-24T13:05:44.676Z,19.36
2018-08-24T13:08:13.752Z,19.37
2018-08-24T13:10:42.777Z,19.39
2018-08-24T13:13:11.742Z,21.00
2018-08-24T13:15:40.855Z,21.96
2018-08-24T13:18:12.525Z,23.23
2018-08-24T13:20:41.657Z,24.81
2018-08-24T13:23:10.695Z,26.72
2018-08-24T13:25:39.659Z,28.23
2018-08-24T13:28:08.749Z,28.62
2018-08-24T13:30:37.754Z,30.25
2018-08-24T13:33:06.976Z,33.42
2018-08-24T13:35:35.993Z,33.44
2018-08-24T13:38:05.114Z,34.75
2018-08-24T13:40:34.159Z,34.67
2018-08-24T13:43:03.197Z,32.96
2018-08-24T13:45:32.208Z,34.38
2018-08-24T13:48:01.368Z,33.01
2018-08-24T13:50:31.508Z,33.21
2018-08-24T13:53:00.505Z,34.12
2018-08-24T13:55:29.689Z,35.40
2018-08-24T13:57:58.818Z,36.62
2018-08-24T14:00:28.053Z,35.50
2018-08-24T14:02:57.480Z,34.43
2018-08-24T14:05:26.502Z,35.34
2018-08-24T14:07:55.596Z,35.71
2018-08-24T14:10:24.596Z,36.32
2018-08-24T14:12:53.660Z,36.97
2018-08-24T14:15:22.763Z,38.29
2018-08-24T14:17:52.269Z,37.27
2018-08-24T14:20:22.529Z,36.32
2018-08-24T14:22:51.742Z,36.79
2018-08-24T14:25:20.992Z,39.33
2018-08-24T14:27:49.982Z,40.64
2018-08-24T14:30:19.029Z,37.83
2018-08-24T14:32:48.056Z,37.16
2018-08-24T14:35:17.045Z,38.38
2018-08-24T14:37:46.044Z,38.98
2018-08-24T14:40:15.033Z,38.34
2018-08-24T14:42:44.075Z,40.70
2018-08-24T14:45:13.129Z,38.71
2018-08-24T14:47:42.137Z,38.60
2018-08-24T14:50:11.173Z,39.00
2018-08-24T14:52:40.156Z,38.87
2018-08-24T14:55:09.233Z,38.85
2018-08-24T14:57:38.248Z,40.79
2018-08-24T15:00:07.433Z,40.76
2018-08-24T15:02:36.390Z,36.71
2018-08-24T15:05:07.636Z,37.64
2018-08-24T15:07:36.686Z,38.62
2018-08-24T15:10:10.257Z,38.31
2018-08-24T15:12:39.879Z,37.17
2018-08-24T15:15:10.261Z,36.95
2018-08-24T15:17:39.294Z,37.20
2018-08-24T15:20:08.480Z,37.51
2018-08-24T15:22:37.615Z,37.72
2018-08-24T15:25:06.686Z,37.22
2018-08-24T15:27:35.640Z,39.45
2018-08-24T15:30:04.674Z,38.92
2018-08-24T15:32:33.628Z,39.63
2018-08-24T15:35:02.736Z,39.74
2018-08-24T15:37:31.711Z,38.57
2018-08-24T15:40:00.747Z,39.52
2018-08-24T15:42:29.733Z,38.61
2018-08-24T15:44:58.737Z,39.06
2018-08-24T15:47:27.769Z,38.45
2018-08-24T15:49:56.850Z,38.34
2018-08-24T15:52:25.820Z,40.63
2018-08-24T15:54:54.777Z,41.85
2018-08-24T15:57:23.901Z,42.76
2018-08-24T15:59:52.956Z,42.53
2018-08-24T16:02:22.040Z,42.07
2018-08-24T16:04:51.052Z,42.66
2018-08-24T16:07:20.026Z,43.49
2018-08-24T16:09:49.045Z,43.10
2018-08-24T16:12:18.085Z,44.46
2018-08-24T16:14:47.049Z,44.77
2018-08-24T16:17:15.994Z,48.02
2018-08-24T16:19:45.013Z,49.39
2018-08-24T16:22:14.004Z,50.38
2018-08-24T16:24:42.957Z,52.88
2018-08-24T16:27:16.081Z,53.75
2018-08-24T16:29:45.163Z,55.53
2018-08-24T16:32:14.246Z,56.11
2018-08-24T16:34:43.307Z,56.35
2018-08-24T16:37:12.283Z,58.04
2018-08-24T16:39:41.354Z,58.83
2018-08-24T16:42:10.347Z,60.62
2018-08-24T16:44:39.447Z,59.68
2018-08-24T16:47:08.460Z,62.24
2018-08-24T16:49:37.486Z,62.76
2018-08-24T16:52:06.476Z,62.66
2018-08-24T16:54:35.434Z,64.27
2018-08-24T16:57:04.670Z,63.07
2018-08-24T16:59:33.710Z,64.14
2018-08-24T17:02:02.903Z,64.94
2018-08-24T17:04:31.932Z,64.75
2018-08-24T17:07:01.000Z,63.02
2018-08-24T17:09:29.957Z,61.90
2018-08-24T17:11:59.046Z,62.73
2018-08-24T17:14:28.106Z,62.40
2018-08-24T17:16:57.143Z,62.64
2018-08-24T17:19:26.205Z,63.92
2018-08-24T17:21:55.367Z,64.14
2018-08-24T17:24:24.456Z,65.06
2018-08-24T17:26:53.522Z,64.12
2018-08-24T17:29:22.648Z,65.60
2018-08-24T17:31:51.687Z,65.09
2018-08-24T17:34:20.763Z,64.58
2018-08-24T17:36:49.783Z,64.25
2018-08-24T17:39:18.825Z,64.61
2018-08-24T17:41:48.049Z,63.40
2018-08-24T17:44:17.029Z,63.56
2018-08-24T17:46:46.061Z,63.96
2018-08-24T17:49:15.184Z,64.93
2018-08-24T17:51:44.224Z,64.72
2018-08-24T17:54:13.557Z,64.09
2018-08-24T17:56:44.152Z,64.88
2018-08-24T17:59:13.339Z,65.14
2018-08-24T18:01:42.872Z,64.50
2018-08-24T18:04:12.387Z,64.40
2018-08-24T18:06:41.477Z,63.33
2018-08-24T18:09:11.795Z,62.76
2018-08-24T18:11:41.579Z,63.90
2018-08-24T18:14:11.021Z,64.99
2018-08-24T18:16:40.290Z,63.82
2018-08-24T18:19:09.415Z,63.54
2018-08-24T18:21:39.411Z,63.90
2018-08-24T18:24:08.583Z,64.64
2018-08-24T18:26:37.768Z,64.69
2018-08-24T18:29:07.054Z,64.58
2018-08-24T18:31:36.160Z,64.45
2018-08-24T18:34:05.372Z,64.45
2018-08-24T18:36:34.576Z,65.79
2018-08-24T18:39:04.557Z,64.83
2018-08-24T18:41:33.779Z,65.12
2018-08-24T18:44:02.990Z,65.71
2018-08-24T18:46:32.276Z,65.70
2018-08-24T18:49:01.596Z,65.93
2018-08-24T18:51:30.951Z,65.23
2018-08-24T18:54:00.300Z,66.00
2018-08-24T18:56:29.465Z,63.83
2018-08-24T18:58:58.515Z,65.61
2018-08-24T19:01:27.789Z,67.71
2018-08-24T19:03:57.164Z,66.39
2018-08-24T19:06:26.480Z,65.65
2018-08-24T19:08:55.807Z,64.81
2018-08-24T19:11:30.048Z,64.39
2018-08-24T19:13:59.501Z,62.61
2018-08-24T19:16:28.812Z,61.37
2018-08-24T19:19:03.253Z,62.18
2018-08-24T19:21:37.656Z,63.39
2018-08-24T19:24:07.072Z,63.12
2018-08-24T19:26:36.376Z,63.42
2018-08-24T19:29:10.691Z,61.77
2018-08-24T19:31:40.321Z,61.89
2018-08-24T19:34:10.351Z,61.49
2018-08-24T19:36:40.148Z,61.57
2018-08-24T19:39:11.783Z,62.24
2018-08-24T19:41:46.199Z,61.24
2018-08-24T19:44:15.867Z,61.70
2018-08-24T19:46:45.271Z,61.83
2018-08-24T19:49:18.009Z,62.15
2018-08-24T19:51:47.381Z,61.70
2018-08-24T19:54:17.362Z,61.42
2018-08-24T19:56:47.282Z,61.75
2018-08-24T19:59:17.602Z,62.88
2018-08-24T20:01:47.082Z,61.83
2018-08-24T20:04:16.404Z,62.99
2018-08-24T20:06:51.103Z,62.43
2018-08-24T20:09:25.832Z,62.49
2018-08-24T20:11:55.126Z,64.17
2018-08-24T20:14:29.370Z,64.14
2018-08-24T20:17:04.198Z,64.69
2018-08-24T20:19:33.541Z,63.37
2018-08-24T20:22:02.884Z,63.83
2018-08-24T20:24:32.440Z,63.13
2018-08-24T20:27:01.687Z,63.26
2018-08-24T20:29:30.971Z,63.44
2018-08-24T20:32:00.278Z,63.37
2018-08-24T20:34:29.562Z,63.65
2018-08-24T20:36:58.865Z,63.24
2018-08-24T20:39:28.150Z,63.43
2018-08-24T20:41:57.490Z,63.92
2018-08-24T20:44:26.776Z,64.16
2018-08-24T20:46:56.054Z,64.02
2018-08-24T20:49:25.380Z,63.23
2018-08-24T20:51:54.674Z,63.46
2018-08-24T20:54:23.974Z,63.72
2018-08-24T20:56:53.275Z,65.32
2018-08-24T20:59:22.602Z,65.45
2018-08-24T21:01:52.042Z,67.07
2018-08-24T21:04:21.672Z,66.94
2018-08-24T21:06:50.961Z,66.82
2018-08-24T21:09:20.235Z,67.65
2018-08-24T21:11:49.527Z,68.10
2018-08-24T21:14:18.917Z,68.28
2018-08-24T21:16:48.313Z,68.12
2018-08-24T21:19:17.661Z,67.85
2018-08-24T21:21:46.945Z,69.37
2018-08-24T21:24:16.237Z,69.38
2018-08-24T21:26:45.683Z,70.75
2018-08-24T21:29:15.026Z,70.19
2018-08-24T21:31:44.338Z,72.90
2018-08-24T21:34:13.738Z,73.41
2018-08-24T21:36:43.052Z,74.06
2018-08-24T21:39:13.304Z,74.23
2018-08-24T21:41:42.663Z,74.13
2018-08-24T21:44:11.934Z,74.62
2018-08-24T21:46:41.210Z,75.32
2018-08-24T21:49:10.470Z,75.01
2018-08-24T21:51:39.797Z,75.18
2018-08-24T21:54:09.125Z,76.22
2018-08-24T21:56:38.410Z,76.78
2018-08-24T21:59:07.700Z,76.43
2018-08-24T22:01:36.956Z,76.34
2018-08-24T22:04:06.235Z,77.05
2018-08-24T22:06:35.518Z,77.18
2018-08-24T22:09:06.206Z,77.09
2018-08-24T22:11:35.467Z,78.60
2018-08-24T22:14:04.754Z,78.46
2018-08-24T22:16:34.137Z,77.98
2018-08-24T22:19:03.478Z,78.23
2018-08-24T22:21:32.754Z,78.86
2018-08-24T22:24:02.020Z,78.86
2018-08-24T22:26:31.311Z,79.32
2018-08-24T22:29:00.454Z,79.70
2018-08-24T22:31:29.542Z,80.14
2018-08-24T22:33:58.537Z,79.77
2018-08-24T22:36:27.497Z,79.89
2018-08-24T22:38:56.477Z,80.69
2018-08-24T22:41:25.410Z,81.53
2018-08-24T22:43:54.352Z,81.14
2018-08-24T22:46:23.308Z,81.83
2018-08-24T22:48:52.317Z,82.77
2018-08-24T22:51:21.237Z,82.75
2018-08-24T22:53:50.188Z,82.97
2018-08-24T22:56:19.124Z,82.91
2018-08-24T22:58:48.062Z,83.34
2018-08-24T23:01:17.055Z,83.29
2018-08-24T23:03:45.984Z,83.04
2018-08-24T23:06:14.967Z,83.32
2018-08-24T23:08:43.894Z,84.09
2018-08-24T23:11:12.836Z,84.78
2018-08-24T23:13:41.777Z,84.42
2018-08-24T23:16:10.704Z,85.52
2018-08-24T23:18:39.640Z,85.10
2018-08-24T23:21:08.564Z,86.03
2018-08-24T23:23:37.560Z,86.50
2018-08-24T23:26:06.513Z,86.39
2018-08-24T23:28:35.463Z,86.56
2018-08-24T23:31:04.419Z,87.66
2018-08-24T23:33:34.336Z,87.84
2018-08-24T23:36:03.393Z,87.60
2018-08-24T23:38:32.308Z,87.71
2018-08-24T23:41:01.277Z,87.79
2018-08-24T23:43:30.272Z,88.46
2018-08-24T23:45:59.197Z,88.14
2018-08-24T23:48:28.139Z,88.74
2018-08-24T23:50:57.076Z,88.90
2018-08-24T23:53:26.012Z,89.26
2018-08-24T23:55:54.934Z,90.20
2018-08-24T23:58:23.872Z,89.96
